Terminal Aerodrome Forecast
Issued by NWS

Current Version | Previous Version | Text Only | Print | Product List | Glossary On
Versions: 1 2 3 4 5 6 7 8 9 10 11 12 13 14 15 16
000
FTUS42 KGSP 312320
TAFAND
TAF
KAND 312320Z 0100/0124 23014G20KT P6SM FEW060
     FM010600 26004KT P6SM SCT060
     FM011000 32003KT P6SM SCT060
     FM011400 06006KT P6SM SCT060
     FM012000 11004KT P6SM SCT060=

USA.gov is the U.S. government's official web portal to all federal, state and local government web resources and services.